sensor_id;sensor_type;location;lat;lon;timestamp;P1;durP1;ratioP1;P2;durP2;ratioP2
17943;SDS011;9097;47.028;15.444;2024-02-26T00:01:14;6.83;;;3.33;;
17943;SDS011;9097;47.028;15.444;2024-02-26T00:04:19;7.57;;;2.57;;
17943;SDS011;9097;47.028;15.444;2024-02-26T00:07:22;4.77;;;2.77;;
17943;SDS011;9097;47.028;15.444;2024-02-26T00:10:25;6.47;;;2.07;;
17943;SDS011;9097;47.028;15.444;2024-02-26T00:13:28;4.77;;;2.53;;
17943;SDS011;9097;47.028;15.444;2024-02-26T00:16:30;6.00;;;2.83;;
17943;SDS011;9097;47.028;15.444;2024-02-26T00:19:36;4.87;;;2.13;;
17943;SDS011;9097;47.028;15.444;2024-02-26T00:22:39;6.57;;;2.27;;
17943;SDS011;9097;47.028;15.444;2024-02-26T00:25:41;4.47;;;2.33;;
17943;SDS011;9097;47.028;15.444;2024-02-26T00:28:44;8.57;;;2.93;;
17943;SDS011;9097;47.028;15.444;2024-02-26T00:31:47;6.70;;;2.70;;
17943;SDS011;9097;47.028;15.444;2024-02-26T00:34:51;5.80;;;3.53;;
17943;SDS011;9097;47.028;15.444;2024-02-26T00:37:54;5.73;;;2.97;;
17943;SDS011;9097;47.028;15.444;2024-02-26T00:40:57;6.67;;;3.33;;
17943;SDS011;9097;47.028;15.444;2024-02-26T00:43:59;7.57;;;2.80;;
17943;SDS011;9097;47.028;15.444;2024-02-26T00:47:02;5.97;;;3.77;;
17943;SDS011;9097;47.028;15.444;2024-02-26T00:50:07;6.20;;;3.23;;
17943;SDS011;9097;47.028;15.444;2024-02-26T00:53:10;7.10;;;3.77;;
17943;SDS011;9097;47.028;15.444;2024-02-26T00:56:13;8.20;;;3.43;;
17943;SDS011;9097;47.028;15.444;2024-02-26T00:59:15;7.70;;;3.97;;
17943;SDS011;9097;47.028;15.444;2024-02-26T01:02:18;10.33;;;3.93;;
17943;SDS011;9097;47.028;15.444;2024-02-26T01:05:22;14.83;;;4.37;;
17943;SDS011;9097;47.028;15.444;2024-02-26T01:08:25;6.90;;;3.27;;
17943;SDS011;9097;47.028;15.444;2024-02-26T01:11:27;13.23;;;5.53;;
17943;SDS011;9097;47.028;15.444;2024-02-26T01:14:31;7.50;;;3.97;;
17943;SDS011;9097;47.028;15.444;2024-02-26T01:17:33;16.10;;;4.23;;
17943;SDS011;9097;47.028;15.444;2024-02-26T01:20:37;5.33;;;3.53;;
17943;SDS011;9097;47.028;15.444;2024-02-26T01:23:40;7.67;;;4.27;;
17943;SDS011;9097;47.028;15.444;2024-02-26T01:26:43;7.00;;;3.73;;
17943;SDS011;9097;47.028;15.444;2024-02-26T01:29:45;8.20;;;4.10;;
17943;SDS011;9097;47.028;15.444;2024-02-26T01:32:48;11.77;;;3.87;;
17943;SDS011;9097;47.028;15.444;2024-02-26T01:35:52;7.43;;;3.90;;
17943;SDS011;9097;47.028;15.444;2024-02-26T01:38:54;7.77;;;3.77;;
17943;SDS011;9097;47.028;15.444;2024-02-26T01:41:57;6.33;;;4.03;;
17943;SDS011;9097;47.028;15.444;2024-02-26T01:45:00;8.20;;;3.47;;
17943;SDS011;9097;47.028;15.444;2024-02-26T01:48:04;8.33;;;2.57;;
17943;SDS011;9097;47.028;15.444;2024-02-26T01:51:09;3.17;;;2.53;;
17943;SDS011;9097;47.028;15.444;2024-02-26T01:54:14;13.50;;;3.57;;
17943;SDS011;9097;47.028;15.444;2024-02-26T01:57:16;3.97;;;2.27;;
17943;SDS011;9097;47.028;15.444;2024-02-26T02:00:19;6.17;;;2.93;;
17943;SDS011;9097;47.028;15.444;2024-02-26T02:03:22;3.67;;;2.40;;
17943;SDS011;9097;47.028;15.444;2024-02-26T02:06:27;6.80;;;2.77;;
17943;SDS011;9097;47.028;15.444;2024-02-26T02:09:30;4.43;;;2.80;;
17943;SDS011;9097;47.028;15.444;2024-02-26T02:12:32;5.23;;;2.73;;
17943;SDS011;9097;47.028;15.444;2024-02-26T02:15:36;6.13;;;2.50;;
17943;SDS011;9097;47.028;15.444;2024-02-26T02:18:39;4.17;;;2.30;;
17943;SDS011;9097;47.028;15.444;2024-02-26T02:21:43;3.73;;;2.00;;
17943;SDS011;9097;47.028;15.444;2024-02-26T02:24:45;7.23;;;3.67;;
17943;SDS011;9097;47.028;15.444;2024-02-26T02:27:49;2.03;;;1.70;;
17943;SDS011;9097;47.028;15.444;2024-02-26T02:30:52;4.00;;;1.90;;
17943;SDS011;9097;47.028;15.444;2024-02-26T02:33:54;3.67;;;1.60;;
17943;SDS011;9097;47.028;15.444;2024-02-26T02:36:59;6.93;;;2.00;;
17943;SDS011;9097;47.028;15.444;2024-02-26T02:40:01;4.00;;;2.20;;
17943;SDS011;9097;47.028;15.444;2024-02-26T02:43:05;4.70;;;2.07;;
17943;SDS011;9097;47.028;15.444;2024-02-26T02:46:08;3.40;;;1.87;;
17943;SDS011;9097;47.028;15.444;2024-02-26T02:49:12;2.40;;;1.50;;
17943;SDS011;9097;47.028;15.444;2024-02-26T02:52:16;4.50;;;2.00;;
17943;SDS011;9097;47.028;15.444;2024-02-26T02:55:18;4.43;;;2.43;;
17943;SDS011;9097;47.028;15.444;2024-02-26T02:58:21;5.07;;;1.97;;
17943;SDS011;9097;47.028;15.444;2024-02-26T03:01:24;6.47;;;2.13;;
17943;SDS011;9097;47.028;15.444;2024-02-26T03:04:26;4.97;;;2.27;;
17943;SDS011;9097;47.028;15.444;2024-02-26T03:07:31;1.70;;;1.50;;
17943;SDS011;9097;47.028;15.444;2024-02-26T03:10:34;1.80;;;1.53;;
17943;SDS011;9097;47.028;15.444;2024-02-26T03:13:36;2.27;;;1.50;;
17943;SDS011;9097;47.028;15.444;2024-02-26T03:16:39;1.57;;;1.20;;
17943;SDS011;9097;47.028;15.444;2024-02-26T03:19:43;3.80;;;1.97;;
17943;SDS011;9097;47.028;15.444;2024-02-26T03:22:49;4.07;;;2.00;;
17943;SDS011;9097;47.028;15.444;2024-02-26T03:25:51;3.40;;;1.67;;
17943;SDS011;9097;47.028;15.444;2024-02-26T03:28:54;2.40;;;1.53;;
17943;SDS011;9097;47.028;15.444;2024-02-26T03:31:56;3.00;;;1.40;;
17943;SDS011;9097;47.028;15.444;2024-02-26T03:34:59;6.13;;;2.17;;
17943;SDS011;9097;47.028;15.444;2024-02-26T03:38:04;5.47;;;1.47;;
17943;SDS011;9097;47.028;15.444;2024-02-26T03:41:07;3.13;;;1.90;;
17943;SDS011;9097;47.028;15.444;2024-02-26T03:44:09;2.93;;;1.40;;
17943;SDS011;9097;47.028;15.444;2024-02-26T03:47:12;1.40;;;1.20;;
17943;SDS011;9097;47.028;15.444;2024-02-26T03:50:15;1.97;;;1.77;;
17943;SDS011;9097;47.028;15.444;2024-02-26T03:53:19;1.77;;;1.40;;
17943;SDS011;9097;47.028;15.444;2024-02-26T03:56:22;3.00;;;1.73;;
17943;SDS011;9097;47.028;15.444;2024-02-26T03:59:24;4.00;;;1.43;;
17943;SDS011;9097;47.028;15.444;2024-02-26T04:02:27;5.33;;;1.80;;
17943;SDS011;9097;47.028;15.444;2024-02-26T04:05:29;4.63;;;1.43;;
17943;SDS011;9097;47.028;15.444;2024-02-26T04:08:33;1.90;;;1.10;;
17943;SDS011;9097;47.028;15.444;2024-02-26T04:11:36;2.93;;;1.60;;
17943;SDS011;9097;47.028;15.444;2024-02-26T04:14:39;2.13;;;1.20;;
17943;SDS011;9097;47.028;15.444;2024-02-26T04:17:42;1.73;;;1.20;;
17943;SDS011;9097;47.028;15.444;2024-02-26T04:20:45;1.33;;;1.13;;
17943;SDS011;9097;47.028;15.444;2024-02-26T04:23:49;1.73;;;1.20;;
17943;SDS011;9097;47.028;15.444;2024-02-26T04:26:51;3.20;;;1.30;;
17943;SDS011;9097;47.028;15.444;2024-02-26T04:29:54;2.13;;;1.53;;
17943;SDS011;9097;47.028;15.444;2024-02-26T04:32:56;1.97;;;1.17;;
17943;SDS011;9097;47.028;15.444;2024-02-26T04:35:59;1.73;;;1.40;;
17943;SDS011;9097;47.028;15.444;2024-02-26T04:39:03;1.47;;;1.00;;
17943;SDS011;9097;47.028;15.444;2024-02-26T04:42:07;2.07;;;1.57;;
17943;SDS011;9097;47.028;15.444;2024-02-26T04:45:09;3.67;;;1.60;;
17943;SDS011;9097;47.028;15.444;2024-02-26T04:48:12;2.80;;;1.83;;
17943;SDS011;9097;47.028;15.444;2024-02-26T04:51:15;4.50;;;1.70;;
17943;SDS011;9097;47.028;15.444;2024-02-26T04:54:19;2.33;;;0.97;;
17943;SDS011;9097;47.028;15.444;2024-02-26T04:57:22;1.83;;;1.30;;
17943;SDS011;9097;47.028;15.444;2024-02-26T05:00:25;4.23;;;1.53;;
17943;SDS011;9097;47.028;15.444;2024-02-26T05:03:27;1.07;;;0.97;;
17943;SDS011;9097;47.028;15.444;2024-02-26T05:06:31;1.10;;;1.00;;
17943;SDS011;9097;47.028;15.444;2024-02-26T05:09:35;3.67;;;1.03;;
17943;SDS011;9097;47.028;15.444;2024-02-26T05:12:38;2.47;;;1.43;;
17943;SDS011;9097;47.028;15.444;2024-02-26T05:15:42;1.60;;;1.20;;
17943;SDS011;9097;47.028;15.444;2024-02-26T05:18:47;3.07;;;1.37;;
17943;SDS011;9097;47.028;15.444;2024-02-26T05:21:49;2.30;;;1.17;;
17943;SDS011;9097;47.028;15.444;2024-02-26T05:24:54;2.27;;;1.17;;
17943;SDS011;9097;47.028;15.444;2024-02-26T05:27:56;4.10;;;0.70;;
17943;SDS011;9097;47.028;15.444;2024-02-26T05:30:59;2.37;;;1.50;;
17943;SDS011;9097;47.028;15.444;2024-02-26T05:34:02;3.00;;;1.33;;
17943;SDS011;9097;47.028;15.444;2024-02-26T05:37:04;3.30;;;1.33;;
17943;SDS011;9097;47.028;15.444;2024-02-26T05:40:10;1.83;;;1.30;;
17943;SDS011;9097;47.028;15.444;2024-02-26T05:43:13;3.47;;;2.07;;
17943;SDS011;9097;47.028;15.444;2024-02-26T05:46:16;1.83;;;1.57;;
17943;SDS011;9097;47.028;15.444;2024-02-26T05:49:19;1.10;;;1.00;;
17943;SDS011;9097;47.028;15.444;2024-02-26T05:52:22;3.87;;;1.50;;
17943;SDS011;9097;47.028;15.444;2024-02-26T05:55:26;3.00;;;1.63;;
17943;SDS011;9097;47.028;15.444;2024-02-26T05:58:29;3.80;;;2.30;;
17943;SDS011;9097;47.028;15.444;2024-02-26T06:01:32;4.73;;;1.17;;
17943;SDS011;9097;47.028;15.444;2024-02-26T06:04:34;4.03;;;0.93;;
17943;SDS011;9097;47.028;15.444;2024-02-26T06:07:37;2.17;;;1.33;;
17943;SDS011;9097;47.028;15.444;2024-02-26T06:10:41;1.50;;;1.23;;
17943;SDS011;9097;47.028;15.444;2024-02-26T06:13:43;3.07;;;1.80;;
17943;SDS011;9097;47.028;15.444;2024-02-26T06:16:46;3.63;;;1.60;;
17943;SDS011;9097;47.028;15.444;2024-02-26T06:19:49;3.53;;;2.00;;
17943;SDS011;9097;47.028;15.444;2024-02-26T06:22:52;2.80;;;1.33;;
17943;SDS011;9097;47.028;15.444;2024-02-26T06:25:56;2.50;;;1.57;;
17943;SDS011;9097;47.028;15.444;2024-02-26T06:28:59;1.53;;;1.30;;
17943;SDS011;9097;47.028;15.444;2024-02-26T06:32:01;5.03;;;1.67;;
17943;SDS011;9097;47.028;15.444;2024-02-26T06:35:04;2.07;;;1.50;;
17943;SDS011;9097;47.028;15.444;2024-02-26T06:38:10;5.97;;;2.40;;
17943;SDS011;9097;47.028;15.444;2024-02-26T06:41:15;2.83;;;1.93;;
17943;SDS011;9097;47.028;15.444;2024-02-26T06:44:18;7.03;;;2.50;;
17943;SDS011;9097;47.028;15.444;2024-02-26T06:47:21;1.57;;;1.43;;
17943;SDS011;9097;47.028;15.444;2024-02-26T06:50:23;8.43;;;2.13;;
17943;SDS011;9097;47.028;15.444;2024-02-26T06:53:26;4.50;;;2.13;;
17943;SDS011;9097;47.028;15.444;2024-02-26T06:56:30;2.97;;;2.30;;
17943;SDS011;9097;47.028;15.444;2024-02-26T06:59:33;3.67;;;1.90;;
17943;SDS011;9097;47.028;15.444;2024-02-26T07:02:36;2.80;;;2.03;;
17943;SDS011;9097;47.028;15.444;2024-02-26T07:05:38;2.63;;;1.87;;
17943;SDS011;9097;47.028;15.444;2024-02-26T07:08:41;4.97;;;2.07;;
17943;SDS011;9097;47.028;15.444;2024-02-26T07:11:45;4.37;;;2.03;;
17943;SDS011;9097;47.028;15.444;2024-02-26T07:14:47;3.40;;;1.63;;
17943;SDS011;9097;47.028;15.444;2024-02-26T07:17:50;5.57;;;2.27;;
17943;SDS011;9097;47.028;15.444;2024-02-26T07:20:53;2.53;;;1.27;;
17943;SDS011;9097;47.028;15.444;2024-02-26T07:23:56;2.03;;;1.00;;
17943;SDS011;9097;47.028;15.444;2024-02-26T07:27:00;4.77;;;2.53;;
17943;SDS011;9097;47.028;15.444;2024-02-26T07:30:04;3.63;;;1.87;;
17943;SDS011;9097;47.028;15.444;2024-02-26T07:33:08;4.97;;;1.90;;
17943;SDS011;9097;47.028;15.444;2024-02-26T07:36:11;2.00;;;1.50;;
17943;SDS011;9097;47.028;15.444;2024-02-26T07:39:14;4.23;;;1.47;;
17943;SDS011;9097;47.028;15.444;2024-02-26T07:42:18;2.60;;;1.73;;
17943;SDS011;9097;47.028;15.444;2024-02-26T07:45:21;3.93;;;2.10;;
17943;SDS011;9097;47.028;15.444;2024-02-26T07:48:23;1.90;;;1.47;;
17943;SDS011;9097;47.028;15.444;2024-02-26T07:51:26;2.13;;;1.57;;
17943;SDS011;9097;47.028;15.444;2024-02-26T07:54:28;2.33;;;1.60;;
17943;SDS011;9097;47.028;15.444;2024-02-26T07:57:32;2.70;;;1.67;;
17943;SDS011;9097;47.028;15.444;2024-02-26T08:00:35;2.10;;;1.60;;
17943;SDS011;9097;47.028;15.444;2024-02-26T08:03:38;1.90;;;1.50;;
17943;SDS011;9097;47.028;15.444;2024-02-26T08:06:40;3.03;;;1.97;;
17943;SDS011;9097;47.028;15.444;2024-02-26T08:09:43;1.67;;;1.30;;
17943;SDS011;9097;47.028;15.444;2024-02-26T08:12:47;2.47;;;1.47;;
17943;SDS011;9097;47.028;15.444;2024-02-26T08:15:50;2.07;;;1.77;;
17943;SDS011;9097;47.028;15.444;2024-02-26T08:18:55;3.33;;;1.87;;
17943;SDS011;9097;47.028;15.444;2024-02-26T08:21:58;2.90;;;1.43;;
17943;SDS011;9097;47.028;15.444;2024-02-26T08:25:00;4.00;;;2.07;;
17943;SDS011;9097;47.028;15.444;2024-02-26T08:28:08;2.40;;;1.90;;
17943;SDS011;9097;47.028;15.444;2024-02-26T08:31:13;6.87;;;2.10;;
17943;SDS011;9097;47.028;15.444;2024-02-26T08:34:16;5.77;;;2.07;;
17943;SDS011;9097;47.028;15.444;2024-02-26T08:37:18;3.30;;;2.20;;
17943;SDS011;9097;47.028;15.444;2024-02-26T08:40:21;2.03;;;1.77;;
17943;SDS011;9097;47.028;15.444;2024-02-26T08:43:25;4.70;;;1.50;;
17943;SDS011;9097;47.028;15.444;2024-02-26T08:46:27;4.00;;;1.93;;
17943;SDS011;9097;47.028;15.444;2024-02-26T08:49:30;1.77;;;1.03;;
17943;SDS011;9097;47.028;15.444;2024-02-26T08:52:33;0.97;;;0.80;;
17943;SDS011;9097;47.028;15.444;2024-02-26T08:55:35;2.17;;;1.50;;
17943;SDS011;9097;47.028;15.444;2024-02-26T08:58:39;1.07;;;0.97;;
17943;SDS011;9097;47.028;15.444;2024-02-26T09:01:43;1.53;;;1.27;;
17943;SDS011;9097;47.028;15.444;2024-02-26T09:04:46;2.70;;;1.43;;
17943;SDS011;9097;47.028;15.444;2024-02-26T09:07:48;2.00;;;1.30;;
17943;SDS011;9097;47.028;15.444;2024-02-26T09:10:52;1.30;;;1.07;;
17943;SDS011;9097;47.028;15.444;2024-02-26T09:13:56;1.60;;;0.90;;
17943;SDS011;9097;47.028;15.444;2024-02-26T09:17:00;2.23;;;0.80;;
17943;SDS011;9097;47.028;15.444;2024-02-26T09:20:03;1.53;;;0.97;;
17943;SDS011;9097;47.028;15.444;2024-02-26T09:23:10;3.07;;;1.40;;
17943;SDS011;9097;47.028;15.444;2024-02-26T09:26:12;1.03;;;0.60;;
17943;SDS011;9097;47.028;15.444;2024-02-26T09:29:18;2.57;;;1.60;;
17943;SDS011;9097;47.028;15.444;2024-02-26T09:32:20;0.80;;;0.77;;
17943;SDS011;9097;47.028;15.444;2024-02-26T09:35:25;0.60;;;0.60;;
17943;SDS011;9097;47.028;15.444;2024-02-26T09:38:27;2.50;;;0.98;;
17943;SDS011;9097;47.028;15.444;2024-02-26T09:41:31;0.97;;;0.87;;
17943;SDS011;9097;47.028;15.444;2024-02-26T09:44:35;0.60;;;0.60;;
17943;SDS011;9097;47.028;15.444;2024-02-26T09:47:38;2.03;;;1.05;;
17943;SDS011;9097;47.028;15.444;2024-02-26T09:50:41;1.92;;;0.95;;
17943;SDS011;9097;47.028;15.444;2024-02-26T09:53:44;2.40;;;1.05;;
17943;SDS011;9097;47.028;15.444;2024-02-26T09:56:49;1.60;;;1.20;;
17943;SDS011;9097;47.028;15.444;2024-02-26T09:59:54;2.92;;;1.42;;
17943;SDS011;9097;47.028;15.444;2024-02-26T10:03:04;8.35;;;1.92;;
17943;SDS011;9097;47.028;15.444;2024-02-26T10:06:07;2.70;;;1.80;;
17943;SDS011;9097;47.028;15.444;2024-02-26T10:09:10;0.88;;;0.73;;
17943;SDS011;9097;47.028;15.444;2024-02-26T10:12:13;1.65;;;0.93;;
17943;SDS011;9097;47.028;15.444;2024-02-26T10:15:18;2.40;;;1.45;;
17943;SDS011;9097;47.028;15.444;2024-02-26T10:18:22;0.98;;;0.70;;
17943;SDS011;9097;47.028;15.444;2024-02-26T10:21:25;1.13;;;1.02;;
17943;SDS011;9097;47.028;15.444;2024-02-26T10:24:28;2.55;;;1.63;;
17943;SDS011;9097;47.028;15.444;2024-02-26T10:27:31;0.88;;;0.80;;
17943;SDS011;9097;47.028;15.444;2024-02-26T10:30:36;2.00;;;1.38;;
17943;SDS011;9097;47.028;15.444;2024-02-26T10:33:39;0.40;;;0.40;;
17943;SDS011;9097;47.028;15.444;2024-02-26T10:36:41;0.63;;;0.60;;
17943;SDS011;9097;47.028;15.444;2024-02-26T10:39:46;2.33;;;0.77;;
17943;SDS011;9097;47.028;15.444;2024-02-26T10:42:49;1.55;;;0.55;;
17943;SDS011;9097;47.028;15.444;2024-02-26T10:45:55;1.75;;;0.70;;
17943;SDS011;9097;47.028;15.444;2024-02-26T10:48:58;0.70;;;0.40;;
17943;SDS011;9097;47.028;15.444;2024-02-26T10:52:01;0.77;;;0.30;;
17943;SDS011;9097;47.028;15.444;2024-02-26T10:55:04;0.43;;;0.40;;
17943;SDS011;9097;47.028;15.444;2024-02-26T10:58:08;1.05;;;0.40;;
17943;SDS011;9097;47.028;15.444;2024-02-26T11:01:13;0.90;;;0.63;;
17943;SDS011;9097;47.028;15.444;2024-02-26T11:04:16;0.98;;;0.50;;
17943;SDS011;9097;47.028;15.444;2024-02-26T11:07:18;0.70;;;0.43;;
17943;SDS011;9097;47.028;15.444;2024-02-26T11:10:22;0.65;;;0.43;;
17943;SDS011;9097;47.028;15.444;2024-02-26T11:13:27;1.30;;;0.57;;
17943;SDS011;9097;47.028;15.444;2024-02-26T11:16:32;0.63;;;0.50;;
17943;SDS011;9097;47.028;15.444;2024-02-26T11:19:36;1.00;;;0.60;;
17943;SDS011;9097;47.028;15.444;2024-02-26T11:22:40;0.47;;;0.47;;
17943;SDS011;9097;47.028;15.444;2024-02-26T11:25:43;0.80;;;0.50;;
17943;SDS011;9097;47.028;15.444;2024-02-26T11:28:45;0.30;;;0.30;;
17943;SDS011;9097;47.028;15.444;2024-02-26T11:31:51;1.03;;;0.20;;
17943;SDS011;9097;47.028;15.444;2024-02-26T11:34:54;1.17;;;0.67;;
17943;SDS011;9097;47.028;15.444;2024-02-26T11:37:57;4.43;;;0.77;;
17943;SDS011;9097;47.028;15.444;2024-02-26T11:41:01;0.57;;;0.40;;
17943;SDS011;9097;47.028;15.444;2024-02-26T11:44:04;1.47;;;0.80;;
17943;SDS011;9097;47.028;15.444;2024-02-26T11:47:12;3.57;;;0.90;;
17943;SDS011;9097;47.028;15.444;2024-02-26T11:50:34;0.83;;;0.80;;
17943;SDS011;9097;47.028;15.444;2024-02-26T11:53:38;0.40;;;0.40;;
17943;SDS011;9097;47.028;15.444;2024-02-26T11:56:49;0.93;;;0.93;;
17943;SDS011;9097;47.028;15.444;2024-02-26T11:59:52;0.63;;;0.63;;
17943;SDS011;9097;47.028;15.444;2024-02-26T12:02:57;1.83;;;0.50;;
17943;SDS011;9097;47.028;15.444;2024-02-26T12:06:01;2.33;;;0.80;;
17943;SDS011;9097;47.028;15.444;2024-02-26T12:09:05;0.60;;;0.60;;
17943;SDS011;9097;47.028;15.444;2024-02-26T12:12:08;2.03;;;0.73;;
17943;SDS011;9097;47.028;15.444;2024-02-26T12:15:11;5.93;;;1.40;;
17943;SDS011;9097;47.028;15.444;2024-02-26T12:18:21;0.57;;;0.30;;
17943;SDS011;9097;47.028;15.444;2024-02-26T12:21:24;1.13;;;0.67;;
17943;SDS011;9097;47.028;15.444;2024-02-26T12:24:27;1.07;;;0.50;;
17943;SDS011;9097;47.028;15.444;2024-02-26T12:27:30;1.53;;;1.03;;
17943;SDS011;9097;47.028;15.444;2024-02-26T12:30:33;0.57;;;0.47;;
17943;SDS011;9097;47.028;15.444;2024-02-26T12:33:38;0.40;;;0.30;;
17943;SDS011;9097;47.028;15.444;2024-02-26T12:36:41;0.83;;;0.50;;
17943;SDS011;9097;47.028;15.444;2024-02-26T12:39:43;0.97;;;0.70;;
17943;SDS011;9097;47.028;15.444;2024-02-26T12:42:47;0.80;;;0.70;;
17943;SDS011;9097;47.028;15.444;2024-02-26T12:45:50;0.33;;;0.33;;
17943;SDS011;9097;47.028;15.444;2024-02-26T12:48:56;1.53;;;0.37;;
17943;SDS011;9097;47.028;15.444;2024-02-26T12:51:59;0.60;;;0.50;;
17943;SDS011;9097;47.028;15.444;2024-02-26T12:55:03;0.77;;;0.57;;
17943;SDS011;9097;47.028;15.444;2024-02-26T12:58:07;2.00;;;0.87;;
17943;SDS011;9097;47.028;15.444;2024-02-26T13:01:13;0.53;;;0.53;;
17943;SDS011;9097;47.028;15.444;2024-02-26T13:04:18;1.70;;;0.60;;
17943;SDS011;9097;47.028;15.444;2024-02-26T13:07:21;0.63;;;0.47;;
17943;SDS011;9097;47.028;15.444;2024-02-26T13:10:24;1.47;;;0.27;;
17943;SDS011;9097;47.028;15.444;2024-02-26T13:13:26;0.53;;;0.50;;
17943;SDS011;9097;47.028;15.444;2024-02-26T13:16:29;0.93;;;0.40;;
17943;SDS011;9097;47.028;15.444;2024-02-26T13:19:34;0.60;;;0.30;;
17943;SDS011;9097;47.028;15.444;2024-02-26T13:22:37;0.73;;;0.40;;
17943;SDS011;9097;47.028;15.444;2024-02-26T13:25:40;0.87;;;0.33;;
17943;SDS011;9097;47.028;15.444;2024-02-26T13:28:42;0.50;;;0.40;;
17943;SDS011;9097;47.028;15.444;2024-02-26T13:31:45;2.97;;;0.77;;
17943;SDS011;9097;47.028;15.444;2024-02-26T13:34:49;0.20;;;0.20;;
17943;SDS011;9097;47.028;15.444;2024-02-26T13:37:52;0.33;;;0.33;;
17943;SDS011;9097;47.028;15.444;2024-02-26T13:40:55;0.57;;;0.30;;
17943;SDS011;9097;47.028;15.444;2024-02-26T13:43:57;0.63;;;0.63;;
17943;SDS011;9097;47.028;15.444;2024-02-26T13:47:00;0.87;;;0.50;;
17943;SDS011;9097;47.028;15.444;2024-02-26T13:50:05;0.40;;;0.30;;
17943;SDS011;9097;47.028;15.444;2024-02-26T13:53:08;2.40;;;0.80;;
17943;SDS011;9097;47.028;15.444;2024-02-26T13:56:11;1.00;;;0.93;;
17943;SDS011;9097;47.028;15.444;2024-02-26T13:59:14;0.30;;;0.23;;
17943;SDS011;9097;47.028;15.444;2024-02-26T14:02:16;1.60;;;0.57;;
17943;SDS011;9097;47.028;15.444;2024-02-26T14:05:21;0.40;;;0.40;;
17943;SDS011;9097;47.028;15.444;2024-02-26T14:08:24;1.10;;;0.67;;
17943;SDS011;9097;47.028;15.444;2024-02-26T14:11:27;0.30;;;0.23;;
17943;SDS011;9097;47.028;15.444;2024-02-26T14:14:31;1.77;;;0.23;;
17943;SDS011;9097;47.028;15.444;2024-02-26T14:17:36;0.70;;;0.43;;
17943;SDS011;9097;47.028;15.444;2024-02-26T14:20:41;1.07;;;0.50;;
17943;SDS011;9097;47.028;15.444;2024-02-26T14:23:45;1.00;;;0.47;;
17943;SDS011;9097;47.028;15.444;2024-02-26T14:26:47;0.37;;;0.37;;
17943;SDS011;9097;47.028;15.444;2024-02-26T14:29:50;0.20;;;0.20;;
17943;SDS011;9097;47.028;15.444;2024-02-26T14:32:53;0.27;;;0.20;;
17943;SDS011;9097;47.028;15.444;2024-02-26T14:35:58;0.63;;;0.40;;
17943;SDS011;9097;47.028;15.444;2024-02-26T14:39:00;0.40;;;0.20;;
17943;SDS011;9097;47.028;15.444;2024-02-26T14:42:03;0.33;;;0.30;;
17943;SDS011;9097;47.028;15.444;2024-02-26T14:45:07;0.20;;;0.20;;
17943;SDS011;9097;47.028;15.444;2024-02-26T14:48:11;0.40;;;0.30;;
17943;SDS011;9097;47.028;15.444;2024-02-26T14:51:15;0.50;;;0.33;;
17943;SDS011;9097;47.028;15.444;2024-02-26T14:54:18;0.60;;;0.40;;
17943;SDS011;9097;47.028;15.444;2024-02-26T14:57:20;1.07;;;0.50;;
17943;SDS011;9097;47.028;15.444;2024-02-26T15:00:23;0.40;;;0.30;;
17943;SDS011;9097;47.028;15.444;2024-02-26T15:03:26;1.63;;;0.80;;
17943;SDS011;9097;47.028;15.444;2024-02-26T15:06:30;0.50;;;0.40;;
17943;SDS011;9097;47.028;15.444;2024-02-26T15:09:32;0.67;;;0.40;;
17943;SDS011;9097;47.028;15.444;2024-02-26T15:12:36;0.93;;;0.53;;
17943;SDS011;9097;47.028;15.444;2024-02-26T15:15:39;2.97;;;1.13;;
17943;SDS011;9097;47.028;15.444;2024-02-26T15:18:42;1.97;;;1.30;;
17943;SDS011;9097;47.028;15.444;2024-02-26T15:21:48;3.97;;;1.17;;
17943;SDS011;9097;47.028;15.444;2024-02-26T15:24:50;2.20;;;0.60;;
17943;SDS011;9097;47.028;15.444;2024-02-26T15:27:53;1.07;;;0.53;;
17943;SDS011;9097;47.028;15.444;2024-02-26T15:30:56;3.17;;;1.30;;
17943;SDS011;9097;47.028;15.444;2024-02-26T15:33:58;1.03;;;0.60;;
17943;SDS011;9097;47.028;15.444;2024-02-26T15:37:02;2.93;;;0.70;;
17943;SDS011;9097;47.028;15.444;2024-02-26T15:40:06;0.63;;;0.20;;
17943;SDS011;9097;47.028;15.444;2024-02-26T15:43:09;0.20;;;0.20;;
17943;SDS011;9097;47.028;15.444;2024-02-26T15:46:11;0.23;;;0.20;;
17943;SDS011;9097;47.028;15.444;2024-02-26T15:49:14;0.50;;;0.40;;
17943;SDS011;9097;47.028;15.444;2024-02-26T15:52:18;3.83;;;1.00;;
17943;SDS011;9097;47.028;15.444;2024-02-26T15:55:20;4.07;;;1.43;;
17943;SDS011;9097;47.028;15.444;2024-02-26T15:58:23;2.87;;;1.13;;
17943;SDS011;9097;47.028;15.444;2024-02-26T16:01:26;2.57;;;1.40;;
17943;SDS011;9097;47.028;15.444;2024-02-26T16:04:28;0.40;;;0.40;;
17943;SDS011;9097;47.028;15.444;2024-02-26T16:07:35;0.70;;;0.70;;
17943;SDS011;9097;47.028;15.444;2024-02-26T16:10:38;1.63;;;0.80;;
17943;SDS011;9097;47.028;15.444;2024-02-26T16:13:42;2.60;;;0.70;;
17943;SDS011;9097;47.028;15.444;2024-02-26T16:16:47;2.00;;;0.50;;
17943;SDS011;9097;47.028;15.444;2024-02-26T16:19:52;0.67;;;0.57;;
17943;SDS011;9097;47.028;15.444;2024-02-26T16:22:56;1.23;;;0.50;;
17943;SDS011;9097;47.028;15.444;2024-02-26T16:26:02;1.87;;;0.80;;
17943;SDS011;9097;47.028;15.444;2024-02-26T16:29:05;0.87;;;0.63;;
17943;SDS011;9097;47.028;15.444;2024-02-26T16:32:07;6.70;;;0.50;;
17943;SDS011;9097;47.028;15.444;2024-02-26T16:35:10;1.03;;;0.87;;
17943;SDS011;9097;47.028;15.444;2024-02-26T16:38:16;0.60;;;0.40;;
17943;SDS011;9097;47.028;15.444;2024-02-26T16:41:18;0.73;;;0.73;;
17943;SDS011;9097;47.028;15.444;2024-02-26T16:44:21;1.60;;;0.53;;
17943;SDS011;9097;47.028;15.444;2024-02-26T16:47:24;1.93;;;0.73;;
17943;SDS011;9097;47.028;15.444;2024-02-26T16:50:27;0.30;;;0.30;;
17943;SDS011;9097;47.028;15.444;2024-02-26T16:53:31;1.23;;;0.63;;
17943;SDS011;9097;47.028;15.444;2024-02-26T16:56:34;2.50;;;1.00;;
17943;SDS011;9097;47.028;15.444;2024-02-26T16:59:37;1.07;;;0.60;;
17943;SDS011;9097;47.028;15.444;2024-02-26T17:02:40;3.53;;;1.87;;
17943;SDS011;9097;47.028;15.444;2024-02-26T17:05:43;1.27;;;0.70;;
17943;SDS011;9097;47.028;15.444;2024-02-26T17:08:48;0.97;;;0.63;;
17943;SDS011;9097;47.028;15.444;2024-02-26T17:11:52;2.03;;;0.73;;
17943;SDS011;9097;47.028;15.444;2024-02-26T17:14:56;0.30;;;0.30;;
17943;SDS011;9097;47.028;15.444;2024-02-26T17:17:59;1.47;;;0.80;;
17943;SDS011;9097;47.028;15.444;2024-02-26T17:21:02;2.47;;;1.30;;
17943;SDS011;9097;47.028;15.444;2024-02-26T17:24:07;1.10;;;1.00;;
17943;SDS011;9097;47.028;15.444;2024-02-26T17:27:09;2.10;;;0.90;;
17943;SDS011;9097;47.028;15.444;2024-02-26T17:30:12;4.77;;;1.50;;
17943;SDS011;9097;47.028;15.444;2024-02-26T17:33:15;1.83;;;1.00;;
17943;SDS011;9097;47.028;15.444;2024-02-26T17:36:17;7.40;;;1.80;;
17943;SDS011;9097;47.028;15.444;2024-02-26T17:39:21;3.27;;;1.63;;
17943;SDS011;9097;47.028;15.444;2024-02-26T17:42:24;2.07;;;1.27;;
17943;SDS011;9097;47.028;15.444;2024-02-26T17:45:27;1.70;;;1.23;;
17943;SDS011;9097;47.028;15.444;2024-02-26T17:48:30;2.07;;;1.00;;
17943;SDS011;9097;47.028;15.444;2024-02-26T17:51:33;2.20;;;1.20;;
17943;SDS011;9097;47.028;15.444;2024-02-26T17:54:37;1.93;;;1.43;;
17943;SDS011;9097;47.028;15.444;2024-02-26T17:57:39;3.83;;;1.53;;
17943;SDS011;9097;47.028;15.444;2024-02-26T18:00:42;1.80;;;1.00;;
17943;SDS011;9097;47.028;15.444;2024-02-26T18:03:46;4.73;;;1.50;;
17943;SDS011;9097;47.028;15.444;2024-02-26T18:06:51;3.70;;;2.13;;
17943;SDS011;9097;47.028;15.444;2024-02-26T18:09:55;2.43;;;1.40;;
17943;SDS011;9097;47.028;15.444;2024-02-26T18:12:57;2.60;;;1.90;;
17943;SDS011;9097;47.028;15.444;2024-02-26T18:16:00;2.00;;;1.33;;
17943;SDS011;9097;47.028;15.444;2024-02-26T18:19:04;3.17;;;1.97;;
17943;SDS011;9097;47.028;15.444;2024-02-26T18:22:07;3.73;;;1.97;;
17943;SDS011;9097;47.028;15.444;2024-02-26T18:25:11;2.67;;;1.60;;